Flight Track Log - Related Links

Times and Time Zones

All times are in EDT time to prevent confusion due to time zone crossing. See the N588AC flight status page for this flight to view local times or setup timezone preferences in your user account.

Time Position Orientation Groundspeed Altitude Reporting Facility
EDT Latitude Longitude Course Direction KTS MPH feet Rate Location/Type
Mon 12:00:00 PM 37.1740 -80.3934 161° South  Level Estimated
Mon 12:01:00 PM 37.1261 -80.3729 161° South  Level Estimated
Mon 12:02:00 PM 37.0781 -80.3524 161° South  Level Estimated
Mon 12:03:00 PM 37.0301 -80.3320 161° South  Level Estimated
Mon 12:04:00 PM 36.9821 -80.3115 161° South  Level Estimated
Mon 12:05:00 PM 36.9341 -80.2911 161° South  Level Estimated
Mon 12:06:00 PM 36.8861 -80.2707 161° South  Level Estimated
Mon 12:07:00 PM 36.8381 -80.2504 161° South  Level Estimated
Mon 12:08:00 PM 36.7901 -80.2300 161° South  Level Estimated
Mon 12:09:00 PM 36.7421 -80.2097 161° South  Level Estimated
Mon 12:10:00 PM 36.6940 -80.1894 161° South  Level Estimated
Mon 12:11:00 PM 36.6460 -80.1691 161° South  Level Estimated
Mon 12:12:00 PM 36.5980 -80.1489 161° South  Level Estimated
Mon 12:13:00 PM 36.5500 -80.1287 161° South  Level Estimated
Mon 12:14:00 PM 36.5019 -80.1085 161° South  Level Estimated
Mon 12:15:00 PM 36.4539 -80.0883 161° South  Level Estimated
Mon 12:16:00 PM 36.3936 -80.0631 161° South  Level Estimated
Mon 12:17:00 PM 36.3333 -80.0378 161° South  Level Estimated
Mon 12:18:00 PM 36.2730 -80.0126 161° South  Level Estimated
Mon 12:19:00 PM 36.2127 -79.9875 161° South  Level Estimated
Mon 12:20:00 PM 36.1523 -79.9623 161° South  Level Estimated
Mon 12:21:00 PM 36.1013 -79.9411 161° South  Level Estimated
Mon 12:22:00 PM 36.1013 -79.9411 214° Southwest  Level Estimated
Mon 12:23:00 PM 36.1013 -79.9411 214° Southwest  Level Estimated
Mon 12:24:00 PM 36.1013 -79.9411 214° Southwest  Level Estimated
Mon 12:25:00 PM 36.1013 -79.9411 214° Southwest  Level Estimated
Mon 12:26:00 PM 36.1013 -79.9411 214° Southwest  Level Estimated
Mon 12:27:00 PM 36.1013 -79.9411 214° Southwest  Level Estimated
Mon 12:28:00 PM 36.1013 -79.9411 214° Southwest  Level Estimated
Mon 12:29:00 PM 36.1013 -79.9411 214° Southwest  Level Estimated
Mon 12:30:00 PM 36.1013 -79.9411 214° Southwest  Level Estimated
Mon 12:31:00 PM 36.1013 -79.9411 214° Southwest  Level Estimated
Mon 12:32:00 PM 36.1013 -79.9411 214° Southwest  Level Estimated
Mon 12:33:00 PM 36.1013 -79.9411 214° Southwest  Level Estimated
Mon 12:34:00 PM 36.1013 -79.9411 214° Southwest  Level Estimated
Mon 12:35:00 PM 36.1013 -79.9411 214° Southwest  Level Estimated
Mon 12:36:00 PM 36.1013 -79.9411 214° Southwest  Level Estimated
Mon 12:37:00 PM 36.1013 -79.9411 214° Southwest  Level Estimated
Mon 12:38:00 PM 36.1013 -79.9411 214° Southwest  Level Estimated

Login

Don't have an account? Register now (free) for customized features, flight alerts, and more!